createdAt,value
2019-03-22T00:01:51.321Z,13.93
2019-03-22T00:04:20.060Z,13.03
2019-03-22T00:06:48.809Z,12.30
2019-03-22T00:09:17.485Z,5.55
2019-03-22T00:11:46.220Z,8.93
2019-03-22T00:14:14.970Z,12.90
2019-03-22T00:16:43.696Z,15.43
2019-03-22T00:19:12.409Z,6.85
2019-03-22T00:21:41.116Z,12.73
2019-03-22T00:24:09.800Z,9.33
2019-03-22T00:26:38.536Z,12.68
2019-03-22T00:29:07.324Z,9.30
2019-03-22T00:31:36.133Z,10.03
2019-03-22T00:34:04.741Z,11.73
2019-03-22T00:36:33.412Z,12.35
2019-03-22T00:39:02.067Z,12.15
2019-03-22T00:41:30.707Z,13.53
2019-03-22T00:43:59.377Z,12.78
2019-03-22T00:46:28.059Z,10.48
2019-03-22T00:48:56.758Z,10.58
2019-03-22T00:51:25.442Z,12.65
2019-03-22T00:53:54.123Z,13.32
2019-03-22T00:56:22.843Z,11.03
2019-03-22T00:58:51.529Z,11.28
2019-03-22T01:01:20.247Z,11.00
2019-03-22T01:03:48.998Z,12.37
2019-03-22T01:06:17.671Z,10.60
2019-03-22T01:08:46.466Z,12.05
2019-03-22T01:11:15.181Z,11.80
2019-03-22T01:13:43.807Z,12.73
2019-03-22T01:16:12.531Z,12.07
2019-03-22T01:18:41.262Z,13.55
2019-03-22T01:21:09.980Z,12.55
2019-03-22T01:23:38.723Z,11.63
2019-03-22T01:26:07.571Z,15.13
2019-03-22T01:28:36.280Z,12.82
2019-03-22T01:31:05.054Z,11.03
2019-03-22T01:33:33.896Z,13.45
2019-03-22T01:36:02.536Z,16.42
2019-03-22T01:38:31.279Z,14.23
2019-03-22T01:41:00.008Z,14.33
2019-03-22T01:43:28.798Z,11.33
2019-03-22T01:45:57.487Z,15.08
2019-03-22T01:48:26.253Z,15.00
2019-03-22T01:50:54.920Z,15.28
2019-03-22T01:53:23.609Z,15.08
2019-03-22T01:55:52.341Z,17.05
2019-03-22T01:58:21.103Z,13.78
2019-03-22T02:00:49.767Z,14.20
2019-03-22T02:03:18.468Z,13.90
2019-03-22T02:05:47.182Z,12.95
2019-03-22T02:08:15.887Z,11.50
2019-03-22T02:10:44.543Z,14.63
2019-03-22T02:13:13.284Z,16.85
2019-03-22T02:15:42.001Z,14.38
2019-03-22T02:18:10.755Z,16.37
2019-03-22T02:20:39.621Z,19.27
2019-03-22T02:23:08.322Z,17.50
2019-03-22T02:25:37.059Z,16.65
2019-03-22T02:28:05.881Z,12.65
2019-03-22T02:30:34.575Z,15.28
2019-03-22T02:33:03.228Z,17.12
2019-03-22T02:35:31.943Z,16.00
2019-03-22T02:38:00.643Z,14.80
2019-03-22T02:40:29.384Z,15.15
2019-03-22T02:42:58.091Z,14.93
2019-03-22T02:45:26.764Z,15.30
2019-03-22T02:47:55.492Z,14.68
2019-03-22T02:50:24.296Z,17.00
2019-03-22T02:52:53.070Z,13.78
2019-03-22T02:55:21.713Z,15.80
2019-03-22T02:57:50.364Z,12.68
2019-03-22T03:00:19.431Z,14.20
2019-03-22T03:02:48.172Z,13.40
2019-03-22T03:05:16.927Z,15.25
2019-03-22T03:07:45.791Z,17.15
2019-03-22T03:10:14.790Z,15.93
2019-03-22T03:12:43.542Z,16.20
2019-03-22T03:15:12.672Z,14.43
2019-03-22T03:17:41.375Z,15.28
2019-03-22T03:20:11.329Z,16.27
2019-03-22T03:22:40.087Z,13.62
2019-03-22T03:25:09.529Z,15.48
2019-03-22T03:27:38.230Z,16.12
2019-03-22T03:30:07.811Z,17.40
2019-03-22T03:32:36.697Z,12.78
2019-03-22T03:35:05.501Z,15.32
2019-03-22T03:37:34.183Z,15.15
2019-03-22T03:40:02.891Z,6.22
2019-03-22T03:42:34.204Z,7.12
2019-03-22T03:45:02.946Z,13.60
2019-03-22T03:47:31.571Z,14.50
2019-03-22T03:50:00.487Z,14.87
2019-03-22T03:52:29.283Z,15.08
2019-03-22T03:54:57.961Z,14.68
2019-03-22T03:57:26.660Z,12.20
2019-03-22T03:59:55.378Z,13.58
2019-03-22T04:02:24.147Z,17.05
2019-03-22T04:04:52.855Z,21.17
2019-03-22T04:07:21.630Z,23.18
2019-03-22T04:09:50.381Z,22.27
2019-03-22T04:12:19.066Z,22.98
2019-03-22T04:14:47.807Z,25.02
2019-03-22T04:17:16.571Z,25.43
2019-03-22T04:19:45.334Z,24.23
2019-03-22T04:22:13.961Z,22.62
2019-03-22T04:24:42.648Z,16.20
2019-03-22T04:27:11.397Z,22.65
2019-03-22T04:29:40.146Z,26.62
2019-03-22T04:32:08.912Z,29.37
2019-03-22T04:34:37.602Z,31.60
2019-03-22T04:37:06.327Z,32.63
2019-03-22T04:39:35.100Z,34.20
2019-03-22T04:42:03.887Z,34.05
2019-03-22T04:44:32.769Z,33.63
2019-03-22T04:47:02.769Z,32.03
2019-03-22T04:49:33.886Z,30.90
2019-03-22T04:52:03.280Z,32.35
2019-03-22T04:54:34.971Z,38.10
2019-03-22T04:57:05.271Z,37.88
2019-03-22T04:59:35.101Z,35.78
2019-03-22T05:02:05.437Z,40.90
2019-03-22T05:04:35.773Z,43.58
2019-03-22T05:07:04.781Z,39.33
2019-03-22T05:09:55.354Z,38.35
2019-03-22T05:12:28.472Z,35.70
2019-03-22T05:15:17.338Z,39.80
2019-03-22T05:17:49.524Z,37.23
2019-03-22T05:20:39.504Z,28.47
2019-03-22T05:23:09.154Z,26.30
2019-03-22T05:25:38.758Z,32.40
2019-03-22T05:28:10.912Z,37.73
2019-03-22T05:31:19.200Z,38.10
2019-03-22T05:33:48.008Z,38.90
2019-03-22T05:36:16.900Z,37.33
2019-03-22T05:38:45.614Z,39.10
2019-03-22T05:41:14.446Z,37.15
2019-03-22T05:43:44.802Z,40.83
2019-03-22T05:46:13.603Z,43.75
2019-03-22T05:48:44.401Z,49.45
2019-03-22T05:51:13.061Z,50.43
2019-03-22T05:53:41.697Z,42.13
2019-03-22T05:56:10.621Z,41.83
2019-03-22T05:58:39.291Z,30.65
2019-03-22T06:01:08.019Z,29.82
2019-03-22T06:03:36.817Z,33.20
2019-03-22T06:06:05.586Z,28.77
2019-03-22T06:08:34.268Z,28.20
2019-03-22T06:11:03.010Z,27.87
2019-03-22T06:13:31.957Z,25.20
2019-03-22T06:16:00.776Z,23.20
2019-03-22T06:18:29.443Z,25.35
2019-03-22T06:20:58.196Z,26.33
2019-03-22T06:23:27.018Z,29.40
2019-03-22T06:25:55.763Z,31.57
2019-03-22T06:28:24.441Z,31.12
2019-03-22T06:30:53.162Z,35.92
2019-03-22T06:33:22.022Z,37.17
2019-03-22T06:35:50.915Z,36.05
2019-03-22T06:38:19.618Z,30.95
2019-03-22T06:40:48.368Z,32.38
2019-03-22T06:43:17.054Z,32.58
2019-03-22T06:45:45.774Z,32.23
2019-03-22T06:48:14.584Z,32.95
2019-03-22T06:50:43.328Z,33.73
2019-03-22T06:53:12.064Z,32.98
2019-03-22T06:55:40.849Z,38.02
2019-03-22T06:58:09.647Z,36.10
2019-03-22T07:00:38.292Z,34.27
2019-03-22T07:03:07.071Z,36.55
2019-03-22T07:05:35.779Z,28.15
2019-03-22T07:08:04.544Z,28.52
2019-03-22T07:10:33.296Z,28.57
2019-03-22T07:13:02.073Z,23.05
2019-03-22T07:15:30.793Z,28.27
2019-03-22T07:17:59.510Z,32.70
2019-03-22T07:20:28.248Z,29.80
2019-03-22T07:22:57.101Z,25.10
2019-03-22T07:25:25.829Z,25.80
2019-03-22T07:27:54.473Z,28.98
2019-03-22T07:30:23.331Z,33.78
2019-03-22T07:32:52.047Z,38.63
2019-03-22T07:35:20.884Z,24.67
2019-03-22T07:37:49.713Z,31.00
2019-03-22T07:40:18.387Z,33.30
2019-03-22T07:42:47.069Z,32.28
2019-03-22T07:45:15.798Z,31.90
2019-03-22T07:47:44.472Z,26.00
2019-03-22T07:50:13.366Z,26.77
2019-03-22T07:52:42.071Z,22.67
2019-03-22T07:55:10.720Z,23.67
2019-03-22T07:57:39.414Z,18.15
2019-03-22T08:00:08.720Z,23.83
2019-03-22T08:02:37.451Z,24.60
2019-03-22T08:05:06.904Z,25.70
2019-03-22T08:07:35.619Z,21.73
2019-03-22T08:10:04.893Z,22.22
2019-03-22T08:12:33.739Z,23.10
2019-03-22T08:15:02.461Z,22.55
2019-03-22T08:17:31.211Z,28.75
2019-03-22T08:20:00.034Z,17.52
2019-03-22T08:22:28.844Z,25.52
2019-03-22T08:24:57.594Z,24.32
2019-03-22T08:27:26.424Z,26.05
2019-03-22T08:29:55.296Z,27.32
2019-03-22T08:32:23.981Z,22.90
2019-03-22T08:34:52.821Z,23.35
2019-03-22T08:37:21.566Z,24.02
2019-03-22T08:39:50.303Z,20.88
2019-03-22T08:42:19.141Z,34.75
2019-03-22T08:44:48.032Z,34.98
2019-03-22T08:47:16.747Z,28.00
2019-03-22T08:49:45.648Z,28.87
2019-03-22T08:52:14.748Z,29.02
2019-03-22T08:54:43.401Z,29.32
2019-03-22T08:57:12.277Z,32.53
2019-03-22T08:59:41.006Z,30.72
2019-03-22T09:02:09.844Z,29.75
2019-03-22T09:04:38.535Z,28.12
2019-03-22T09:07:07.269Z,25.88
2019-03-22T09:09:41.373Z,25.40
2019-03-22T09:14:34.011Z,25.40
2019-03-22T09:17:02.865Z,26.33
2019-03-22T09:19:31.652Z,26.52
2019-03-22T09:22:00.294Z,29.72
2019-03-22T09:24:38.627Z,26.52
2019-03-22T09:26:59.683Z,28.10
2019-03-22T09:29:28.507Z,27.52
2019-03-22T09:31:57.196Z,25.92
2019-03-22T09:34:33.618Z,23.10
2019-03-22T09:36:56.416Z,21.70
2019-03-22T09:39:25.304Z,25.85
2019-03-22T09:41:54.192Z,24.07
2019-03-22T09:44:22.886Z,20.92
2019-03-22T09:46:51.689Z,19.45
2019-03-22T09:49:20.487Z,22.42
2019-03-22T09:51:49.288Z,21.42
2019-03-22T09:54:18.159Z,20.50
2019-03-22T09:56:47.639Z,22.98
2019-03-22T09:59:16.412Z,19.62
2019-03-22T10:01:45.231Z,20.48
2019-03-22T10:04:14.155Z,18.12
2019-03-22T10:06:43.032Z,18.37
2019-03-22T10:09:11.665Z,17.98
2019-03-22T10:11:40.501Z,17.60
2019-03-22T10:14:09.214Z,18.75
2019-03-22T10:16:38.045Z,17.20
2019-03-22T10:19:06.904Z,17.67
2019-03-22T10:21:35.714Z,13.72
2019-03-22T10:24:04.546Z,14.78
2019-03-22T10:26:33.558Z,14.23
2019-03-22T10:29:03.207Z,15.55
2019-03-22T10:31:37.197Z,14.78
2019-03-22T10:34:02.463Z,13.70
2019-03-22T10:36:31.275Z,13.08
2019-03-22T10:39:00.101Z,12.82
2019-03-22T10:41:29.155Z,11.12
2019-03-22T10:43:58.123Z,9.37
2019-03-22T10:46:27.043Z,11.10
2019-03-22T10:48:55.807Z,9.40
2019-03-22T10:51:24.797Z,9.68
2019-03-22T10:53:53.627Z,7.55
2019-03-22T10:56:24.791Z,6.08
2019-03-22T10:58:53.093Z,6.40
2019-03-22T11:01:22.150Z,6.17
2019-03-22T11:03:51.000Z,5.23
2019-03-22T11:06:26.135Z,6.30
2019-03-22T11:08:50.547Z,4.47
2019-03-22T11:11:19.357Z,5.65
2019-03-22T11:13:48.216Z,4.87
2019-03-22T11:16:17.072Z,4.08
2019-03-22T11:18:45.718Z,4.97
2019-03-22T11:21:14.496Z,4.85
2019-03-22T11:23:44.912Z,2.95
2019-03-22T11:26:13.921Z,6.17
2019-03-22T11:28:42.866Z,5.90
2019-03-22T11:31:11.622Z,3.97
2019-03-22T11:33:40.515Z,5.20
2019-03-22T11:36:09.430Z,4.33
2019-03-22T11:38:38.242Z,5.17
2019-03-22T11:41:07.012Z,5.37
2019-03-22T11:43:35.727Z,4.22
2019-03-22T11:46:04.768Z,5.05
2019-03-22T11:48:33.462Z,4.70
2019-03-22T11:51:02.260Z,5.70
2019-03-22T11:53:30.979Z,4.30
2019-03-22T11:55:59.755Z,4.08
2019-03-22T11:58:28.442Z,4.35
2019-03-22T12:00:57.214Z,4.37
2019-03-22T12:03:26.277Z,2.33
2019-03-22T12:05:54.917Z,3.42
2019-03-22T12:08:25.497Z,2.87
2019-03-22T12:10:54.181Z,3.10
2019-03-22T12:13:22.913Z,2.80
2019-03-22T12:15:51.810Z,3.30
2019-03-22T12:18:20.857Z,2.27
2019-03-22T12:20:49.587Z,2.10
2019-03-22T12:23:18.381Z,2.50
2019-03-22T12:25:47.053Z,2.57
2019-03-22T12:28:15.916Z,2.40
2019-03-22T12:30:44.672Z,2.73
2019-03-22T12:33:13.378Z,2.43
2019-03-22T12:35:42.684Z,1.80
2019-03-22T12:38:11.476Z,2.20
2019-03-22T12:40:40.292Z,2.73
2019-03-22T12:43:09.362Z,1.90
2019-03-22T12:45:39.000Z,1.95
2019-03-22T12:48:07.820Z,1.80
2019-03-22T12:50:36.693Z,2.22
2019-03-22T12:53:05.872Z,2.10
2019-03-22T12:55:35.436Z,2.52
2019-03-22T13:00:31.876Z,2.00
2019-03-22T13:03:00.628Z,2.35
2019-03-22T13:05:29.647Z,2.27
2019-03-22T13:07:58.607Z,2.27
2019-03-22T13:10:27.844Z,2.35
2019-03-22T13:12:56.881Z,2.30
2019-03-22T13:15:25.675Z,2.52
2019-03-22T13:17:54.348Z,1.67
2019-03-22T13:20:23.356Z,2.87
2019-03-22T13:22:53.245Z,3.00
2019-03-22T13:25:22.160Z,2.30
2019-03-22T13:27:50.946Z,3.10
2019-03-22T13:30:43.937Z,2.08
2019-03-22T13:33:13.072Z,3.17
2019-03-22T13:35:42.090Z,3.70
2019-03-22T13:38:10.832Z,3.22
2019-03-22T13:40:39.562Z,3.15
2019-03-22T13:43:08.267Z,1.60
2019-03-22T13:45:36.992Z,2.52
2019-03-22T13:48:05.839Z,2.42
2019-03-22T13:50:34.561Z,2.12
2019-03-22T13:53:03.591Z,2.12
2019-03-22T13:55:32.537Z,2.35
2019-03-22T13:58:01.322Z,2.30
2019-03-22T14:00:29.992Z,3.65
2019-03-22T14:03:02.956Z,1.52
2019-03-22T14:05:29.161Z,1.62
2019-03-22T14:07:57.863Z,2.08
2019-03-22T14:10:31.261Z,1.87
2019-03-22T14:13:00.426Z,3.12
2019-03-22T14:15:29.499Z,2.80
2019-03-22T14:17:58.345Z,1.87
2019-03-22T14:20:27.271Z,1.87
2019-03-22T14:22:56.443Z,1.92
2019-03-22T14:25:25.167Z,1.30
2019-03-22T14:27:54.031Z,2.22
2019-03-22T14:30:23.097Z,2.20
2019-03-22T14:32:51.881Z,2.10
2019-03-22T14:35:22.113Z,3.00
2019-03-22T14:37:51.319Z,1.65
2019-03-22T14:40:20.065Z,2.00
2019-03-22T14:42:48.887Z,1.32
2019-03-22T14:45:17.913Z,1.82
2019-03-22T14:47:46.562Z,1.70
2019-03-22T14:50:15.349Z,1.15
2019-03-22T14:52:44.170Z,1.50
2019-03-22T14:55:13.335Z,1.25
2019-03-22T14:57:49.057Z,1.50
2019-03-22T15:00:12.823Z,1.75
2019-03-22T15:02:41.730Z,1.22
2019-03-22T15:05:10.745Z,1.60
2019-03-22T15:07:39.794Z,1.82
2019-03-22T15:10:09.731Z,0.90
2019-03-22T15:12:38.633Z,1.20
2019-03-22T15:15:27.007Z,0.82
2019-03-22T15:18:20.470Z,1.40
2019-03-22T15:21:14.251Z,1.37
2019-03-22T15:24:03.469Z,1.50
2019-03-22T15:26:46.399Z,1.40
2019-03-22T15:29:32.793Z,1.17
2019-03-22T15:32:18.947Z,0.75
2019-03-22T15:35:05.348Z,1.17
2019-03-22T15:37:51.902Z,0.98
2019-03-22T15:40:20.908Z,1.20
2019-03-22T15:42:49.605Z,1.80
2019-03-22T15:45:18.510Z,1.47
2019-03-22T15:47:47.397Z,1.20
2019-03-22T15:50:16.792Z,1.45
2019-03-22T15:52:45.653Z,1.57
2019-03-22T15:55:14.666Z,1.35
2019-03-22T15:57:43.433Z,1.50
2019-03-22T16:00:15.604Z,1.20
2019-03-22T16:02:44.692Z,1.07
2019-03-22T16:05:14.327Z,1.05
2019-03-22T16:07:43.119Z,1.42
2019-03-22T16:10:12.086Z,1.30
2019-03-22T16:12:42.028Z,1.37
2019-03-22T16:15:11.504Z,1.40
2019-03-22T16:17:40.212Z,1.80
2019-03-22T16:20:09.807Z,1.70
2019-03-22T16:22:38.707Z,1.52
2019-03-22T16:25:08.106Z,3.00
2019-03-22T16:27:37.080Z,2.10
2019-03-22T16:30:07.210Z,1.82
2019-03-22T16:32:36.274Z,1.52
2019-03-22T16:35:05.940Z,1.82
2019-03-22T16:40:04.582Z,1.72
2019-03-22T16:42:33.288Z,1.40
2019-03-22T16:45:05.177Z,1.50
2019-03-22T16:47:34.374Z,1.60
2019-03-22T16:50:03.265Z,1.60
2019-03-22T16:52:32.159Z,1.43
2019-03-22T16:55:00.874Z,1.57
2019-03-22T16:57:30.160Z,2.05
2019-03-22T16:59:59.256Z,1.40
2019-03-22T17:02:28.041Z,2.08
2019-03-22T17:04:56.831Z,1.45
2019-03-22T17:07:25.753Z,1.67
2019-03-22T17:09:54.569Z,1.55
2019-03-22T17:12:23.357Z,2.33
2019-03-22T17:14:52.373Z,1.60
2019-03-22T17:17:21.159Z,1.47
2019-03-22T17:19:50.026Z,1.47
2019-03-22T17:22:18.902Z,1.87
2019-03-22T17:24:47.827Z,1.70
2019-03-22T17:27:16.599Z,1.52
2019-03-22T17:29:45.537Z,1.62
2019-03-22T17:32:14.766Z,2.50
2019-03-22T17:34:43.564Z,1.20
2019-03-22T17:37:12.367Z,1.60
2019-03-22T17:39:41.319Z,1.55
2019-03-22T17:42:10.105Z,1.45
2019-03-22T17:44:38.828Z,1.40
2019-03-22T17:47:07.543Z,1.20
2019-03-22T17:49:36.676Z,1.55
2019-03-22T17:52:05.740Z,2.03
2019-03-22T17:54:34.612Z,3.33
2019-03-22T17:57:03.529Z,2.12
2019-03-22T17:59:32.281Z,1.70
2019-03-22T18:02:01.402Z,2.30
2019-03-22T18:04:30.308Z,2.53
2019-03-22T18:06:59.118Z,2.45
2019-03-22T18:09:27.872Z,1.80
2019-03-22T18:11:56.772Z,1.75
2019-03-22T18:14:27.038Z,1.00
2019-03-22T18:16:56.061Z,1.50
2019-03-22T18:19:24.798Z,1.50
2019-03-22T18:21:54.604Z,1.70
2019-03-22T18:24:23.859Z,1.27
2019-03-22T18:26:53.339Z,1.63
2019-03-22T18:29:22.150Z,1.02
2019-03-22T18:31:51.050Z,2.00
2019-03-22T18:34:20.078Z,2.10
2019-03-22T18:36:48.821Z,2.00
2019-03-22T18:39:17.738Z,2.22
2019-03-22T18:41:46.531Z,2.87
2019-03-22T18:44:15.432Z,3.60
2019-03-22T18:46:44.286Z,4.10
2019-03-22T18:49:13.509Z,2.85
2019-03-22T18:51:42.286Z,2.40
2019-03-22T18:54:11.338Z,3.58
2019-03-22T18:56:40.703Z,3.08
2019-03-22T18:59:09.865Z,2.67
2019-03-22T19:01:39.555Z,2.42
2019-03-22T19:04:08.554Z,2.98
2019-03-22T19:06:37.409Z,2.65
2019-03-22T19:09:08.881Z,2.95
2019-03-22T19:11:38.051Z,2.55
2019-03-22T19:14:07.230Z,3.27
2019-03-22T19:16:36.643Z,4.42
2019-03-22T19:19:06.677Z,5.40
2019-03-22T19:21:35.644Z,5.15
2019-03-22T19:24:05.034Z,4.55
2019-03-22T19:26:34.017Z,4.17
2019-03-22T19:29:03.359Z,3.33
2019-03-22T19:31:32.330Z,3.83
2019-03-22T19:34:01.956Z,4.08
2019-03-22T19:36:31.612Z,2.50
2019-03-22T19:39:00.478Z,3.20
2019-03-22T19:41:29.909Z,3.12
2019-03-22T19:43:59.150Z,2.97
2019-03-22T19:46:28.494Z,3.02
2019-03-22T19:48:58.359Z,3.50
2019-03-22T19:51:27.523Z,3.20
2019-03-22T19:53:57.324Z,2.35
2019-03-22T19:56:27.600Z,3.05
2019-03-22T19:58:56.928Z,2.55
2019-03-22T20:01:26.766Z,2.58
2019-03-22T20:03:56.028Z,2.35
2019-03-22T20:06:25.577Z,3.15
2019-03-22T20:08:54.880Z,2.77
2019-03-22T20:11:24.100Z,3.02
2019-03-22T20:13:53.471Z,3.45
2019-03-22T20:16:22.763Z,4.08
2019-03-22T20:18:52.633Z,2.92
2019-03-22T20:21:21.722Z,3.25
2019-03-22T20:23:53.841Z,3.52
2019-03-22T20:26:21.867Z,3.10
2019-03-22T20:28:51.275Z,2.83
2019-03-22T20:31:20.963Z,2.80
2019-03-22T20:33:50.103Z,4.25
2019-03-22T20:36:20.196Z,3.20
2019-03-22T20:38:49.712Z,2.45
2019-03-22T20:41:19.282Z,3.73
2019-03-22T20:43:48.464Z,2.73
2019-03-22T20:46:18.120Z,3.22
2019-03-22T20:48:47.985Z,3.40
2019-03-22T20:51:17.653Z,3.02
2019-03-22T20:53:47.698Z,2.90
2019-03-22T20:56:17.463Z,2.60
2019-03-22T20:58:47.594Z,3.70
2019-03-22T21:01:17.520Z,3.27
2019-03-22T21:03:48.063Z,3.40
2019-03-22T21:06:17.829Z,2.52
2019-03-22T21:08:47.230Z,2.25
2019-03-22T21:11:17.099Z,3.10
2019-03-22T21:13:47.072Z,1.98
2019-03-22T21:16:16.163Z,2.85
2019-03-22T21:18:45.934Z,3.60
2019-03-22T21:21:17.396Z,3.87
2019-03-22T21:23:49.122Z,4.12
2019-03-22T21:26:18.163Z,3.40
2019-03-22T21:28:47.425Z,3.30
2019-03-22T21:31:16.589Z,3.20
2019-03-22T21:33:46.059Z,2.67
2019-03-22T21:36:14.998Z,2.60
2019-03-22T21:38:43.826Z,2.50
2019-03-22T21:41:12.922Z,3.35
2019-03-22T21:43:41.764Z,3.60
2019-03-22T21:46:10.906Z,3.55
2019-03-22T21:48:40.248Z,5.00
2019-03-22T21:51:09.852Z,4.35
2019-03-22T21:53:39.080Z,3.60
2019-03-22T21:56:08.000Z,3.45
2019-03-22T21:58:37.153Z,3.27
2019-03-22T22:01:05.917Z,2.87
2019-03-22T22:03:34.621Z,3.30
2019-03-22T22:06:03.964Z,4.05
2019-03-22T22:08:32.791Z,5.08
2019-03-22T22:11:01.816Z,4.20
2019-03-22T22:13:30.751Z,3.25
2019-03-22T22:15:59.669Z,2.50
2019-03-22T22:18:28.768Z,2.83
2019-03-22T22:20:57.793Z,3.50
2019-03-22T22:23:26.640Z,3.55
2019-03-22T22:25:55.474Z,4.20
2019-03-22T22:28:24.633Z,3.22
2019-03-22T22:30:53.495Z,3.98
2019-03-22T22:33:22.422Z,3.72
2019-03-22T22:35:58.631Z,3.45
2019-03-22T22:38:21.983Z,2.52
2019-03-22T22:40:51.074Z,3.85
2019-03-22T22:43:19.967Z,2.52
2019-03-22T22:45:48.943Z,3.83
2019-03-22T22:48:17.836Z,4.15
2019-03-22T22:50:46.608Z,2.92
2019-03-22T22:53:15.368Z,3.50
2019-03-22T22:55:44.218Z,4.08
2019-03-22T22:58:12.894Z,2.85
2019-03-22T23:00:42.034Z,3.10
2019-03-22T23:03:10.930Z,2.72
2019-03-22T23:05:40.070Z,4.20
2019-03-22T23:08:09.628Z,4.25
2019-03-22T23:10:38.303Z,3.70
2019-03-22T23:13:07.105Z,3.33
2019-03-22T23:15:36.387Z,2.60
2019-03-22T23:18:05.057Z,2.35
2019-03-22T23:20:33.761Z,4.35
2019-03-22T23:23:02.519Z,2.50
2019-03-22T23:25:31.221Z,3.80
2019-03-22T23:28:00.038Z,4.50
2019-03-22T23:30:28.902Z,5.33
2019-03-22T23:32:57.641Z,3.25
2019-03-22T23:35:26.537Z,4.50
2019-03-22T23:37:55.309Z,3.72
2019-03-22T23:40:24.087Z,4.53
2019-03-22T23:42:52.846Z,4.83
2019-03-22T23:45:21.751Z,3.87
2019-03-22T23:47:50.450Z,4.87
2019-03-22T23:50:19.248Z,5.03
2019-03-22T23:52:47.973Z,4.75
2019-03-22T23:55:16.704Z,4.60
2019-03-22T23:57:45.389Z,5.35
